Pulleys Mill, Illinois
Current Conditions -  °F | °C
As of 10:54 AM on Wednesday 26 Nov 2014 (Local Time) from KMWA Reporting Station
Broken Clouds Broken Clouds  
Wind Chill: -1°   Ceiling: 12000
Heat Index:   Visibility: 15mi
Dew Point: -1°   Wind: 15mph
Humidity: 70%   Direction: 150°SSE
Pressure: 30.07"   Gusts: NA
Location:  37.565°N, 88.982°W
Report Text: KMWA 261654Z 15013KT 15SM BKN120 BKN250 04/M01 A3007
Loading
Personal Weather Stations






























Interactive Weather Map New forecast layout! Learn more

10-Day Weather Forecast

Advertisements
Track Severe Weather on mobile